sensor_id;sensor_type;location;lat;lon;timestamp;pressure;altitude;pressure_sealevel;temperature;humidity
80147;BME280;69472;55.812;37.638;2023-04-24T00:03:56;99403.34;;;14.97;37.43
80147;BME280;69472;55.812;37.638;2023-04-24T00:08:59;99407.69;;;14.97;37.75
80147;BME280;69472;55.812;37.638;2023-04-24T00:14:01;99412.13;;;14.93;38.14
80147;BME280;69472;55.812;37.638;2023-04-24T00:19:01;99394.13;;;14.74;37.58
80147;BME280;69472;55.812;37.638;2023-04-24T00:24:02;99406.66;;;14.82;38.05
80147;BME280;69472;55.812;37.638;2023-04-24T00:29:03;99405.38;;;14.91;37.73
80147;BME280;69472;55.812;37.638;2023-04-24T00:34:04;99415.22;;;14.83;38.44
80147;BME280;69472;55.812;37.638;2023-04-24T00:39:05;99405.63;;;14.67;39.09
80147;BME280;69472;55.812;37.638;2023-04-24T00:44:05;99404.78;;;14.67;39.62
80147;BME280;69472;55.812;37.638;2023-04-24T00:49:06;99413.00;;;14.56;39.49
80147;BME280;69472;55.812;37.638;2023-04-24T00:54:06;99410.06;;;14.64;39.50
80147;BME280;69472;55.812;37.638;2023-04-24T00:59:08;99408.88;;;14.52;39.67
80147;BME280;69472;55.812;37.638;2023-04-24T01:04:09;99413.81;;;14.57;39.72
80147;BME280;69472;55.812;37.638;2023-04-24T01:09:12;99391.06;;;14.48;39.65
80147;BME280;69472;55.812;37.638;2023-04-24T01:14:13;99410.47;;;14.55;39.01
80147;BME280;69472;55.812;37.638;2023-04-24T01:19:14;99412.44;;;14.50;39.46
80147;BME280;69472;55.812;37.638;2023-04-24T01:24:16;99411.03;;;14.43;39.21
80147;BME280;69472;55.812;37.638;2023-04-24T01:29:19;99405.00;;;14.44;39.13
80147;BME280;69472;55.812;37.638;2023-04-24T01:34:20;99407.47;;;14.45;39.02
80147;BME280;69472;55.812;37.638;2023-04-24T01:39:21;99405.75;;;14.46;39.31
80147;BME280;69472;55.812;37.638;2023-04-24T01:44:23;99405.59;;;14.30;39.17
80147;BME280;69472;55.812;37.638;2023-04-24T01:49:24;99403.50;;;14.38;39.24
80147;BME280;69472;55.812;37.638;2023-04-24T01:54:25;99394.50;;;14.28;38.81
80147;BME280;69472;55.812;37.638;2023-04-24T01:59:27;99392.59;;;14.33;38.87
80147;BME280;69472;55.812;37.638;2023-04-24T02:04:28;99391.75;;;14.33;39.07
80147;BME280;69472;55.812;37.638;2023-04-24T02:09:29;99396.44;;;14.23;38.88
80147;BME280;69472;55.812;37.638;2023-04-24T02:14:30;99393.84;;;14.23;39.44
80147;BME280;69472;55.812;37.638;2023-04-24T02:19:31;99404.69;;;14.31;39.13
80147;BME280;69472;55.812;37.638;2023-04-24T02:24:31;99401.28;;;14.49;38.68
80147;BME280;69472;55.812;37.638;2023-04-24T02:29:32;99408.88;;;14.71;39.00
80147;BME280;69472;55.812;37.638;2023-04-24T02:34:33;99402.63;;;15.12;37.98
80147;BME280;69472;55.812;37.638;2023-04-24T02:39:34;99397.72;;;15.25;38.51
80147;BME280;69472;55.812;37.638;2023-04-24T02:44:34;99407.78;;;15.12;38.93
80147;BME280;69472;55.812;37.638;2023-04-24T02:49:35;99397.63;;;15.62;38.24
80147;BME280;69472;55.812;37.638;2023-04-24T02:54:36;99408.63;;;16.33;37.44
80147;BME280;69472;55.812;37.638;2023-04-24T02:59:37;99420.19;;;16.26;37.65
80147;BME280;69472;55.812;37.638;2023-04-24T03:04:37;99414.22;;;16.89;37.12
80147;BME280;69472;55.812;37.638;2023-04-24T03:09:40;99411.19;;;16.33;37.24
80147;BME280;69472;55.812;37.638;2023-04-24T03:14:41;99422.66;;;15.94;38.34
80147;BME280;69472;55.812;37.638;2023-04-24T03:19:41;99419.25;;;15.60;38.84
80147;BME280;69472;55.812;37.638;2023-04-24T03:24:42;99421.44;;;15.67;38.75
80147;BME280;69472;55.812;37.638;2023-04-24T03:29:43;99410.06;;;16.38;37.99
80147;BME280;69472;55.812;37.638;2023-04-24T03:34:43;99422.28;;;17.89;35.60
80147;BME280;69472;55.812;37.638;2023-04-24T03:39:45;99410.47;;;18.42;35.17
80147;BME280;69472;55.812;37.638;2023-04-24T03:44:45;99425.59;;;18.63;34.44
80147;BME280;69472;55.812;37.638;2023-04-24T03:49:46;99424.81;;;18.76;33.92
80147;BME280;69472;55.812;37.638;2023-04-24T03:54:47;99423.69;;;19.99;32.92
80147;BME280;69472;55.812;37.638;2023-04-24T03:59:48;99423.78;;;19.97;31.49
80147;BME280;69472;55.812;37.638;2023-04-24T04:04:48;99429.00;;;20.97;31.30
80147;BME280;69472;55.812;37.638;2023-04-24T04:09:50;99433.63;;;21.04;30.05
80147;BME280;69472;55.812;37.638;2023-04-24T04:14:51;99438.25;;;21.01;30.05
80147;BME280;69472;55.812;37.638;2023-04-24T04:19:51;99438.03;;;21.75;29.47
80147;BME280;69472;55.812;37.638;2023-04-24T04:24:52;99433.44;;;22.68;28.50
80147;BME280;69472;55.812;37.638;2023-04-24T04:29:53;99439.47;;;22.80;27.48
80147;BME280;69472;55.812;37.638;2023-04-24T04:34:53;99434.09;;;23.04;27.60
80147;BME280;69472;55.812;37.638;2023-04-24T04:39:54;99439.81;;;22.98;27.00
80147;BME280;69472;55.812;37.638;2023-04-24T04:44:55;99429.91;;;24.38;26.58
80147;BME280;69472;55.812;37.638;2023-04-24T04:49:57;99438.13;;;25.53;25.13
80147;BME280;69472;55.812;37.638;2023-04-24T04:54:58;99437.03;;;26.30;23.84
80147;BME280;69472;55.812;37.638;2023-04-24T04:59:59;99443.13;;;26.31;22.39
80147;BME280;69472;55.812;37.638;2023-04-24T05:05:00;99439.72;;;25.35;22.86
80147;BME280;69472;55.812;37.638;2023-04-24T05:10:01;99437.59;;;26.98;21.75
80147;BME280;69472;55.812;37.638;2023-04-24T05:15:03;99445.47;;;28.21;20.99
80147;BME280;69472;55.812;37.638;2023-04-24T05:20:04;99436.50;;;27.18;22.24
80147;BME280;69472;55.812;37.638;2023-04-24T05:25:08;99442.91;;;27.68;21.06
80147;BME280;69472;55.812;37.638;2023-04-24T05:30:09;99442.16;;;29.37;20.08
80147;BME280;69472;55.812;37.638;2023-04-24T05:35:10;99426.19;;;29.46;19.92
80147;BME280;69472;55.812;37.638;2023-04-24T05:40:11;99434.53;;;30.85;18.55
80147;BME280;69472;55.812;37.638;2023-04-24T05:45:12;99439.66;;;30.24;18.54
80147;BME280;69472;55.812;37.638;2023-04-24T05:50:16;99439.59;;;31.26;17.49
80147;BME280;69472;55.812;37.638;2023-04-24T05:55:17;99436.09;;;31.78;17.28
80147;BME280;69472;55.812;37.638;2023-04-24T06:00:18;99434.41;;;32.00;17.48
80147;BME280;69472;55.812;37.638;2023-04-24T06:05:20;99435.19;;;32.53;17.55
80147;BME280;69472;55.812;37.638;2023-04-24T06:10:21;99440.25;;;32.98;16.76
80147;BME280;69472;55.812;37.638;2023-04-24T06:15:21;99438.69;;;32.53;15.96
80147;BME280;69472;55.812;37.638;2023-04-24T06:20:22;99438.97;;;32.06;16.23
80147;BME280;69472;55.812;37.638;2023-04-24T06:25:25;99433.34;;;33.54;15.68
80147;BME280;69472;55.812;37.638;2023-04-24T06:30:27;99440.44;;;34.23;14.95
80147;BME280;69472;55.812;37.638;2023-04-24T06:35:28;99433.06;;;34.19;15.14
80147;BME280;69472;55.812;37.638;2023-04-24T06:40:29;99446.59;;;33.54;15.50
80147;BME280;69472;55.812;37.638;2023-04-24T06:45:30;99442.06;;;33.33;15.56
80147;BME280;69472;55.812;37.638;2023-04-24T06:50:31;99431.19;;;34.19;14.65
80147;BME280;69472;55.812;37.638;2023-04-24T06:55:32;99441.25;;;34.58;14.52
80147;BME280;69472;55.812;37.638;2023-04-24T07:00:33;99443.25;;;34.50;14.59
80147;BME280;69472;55.812;37.638;2023-04-24T07:05:34;99439.81;;;37.18;12.77
80147;BME280;69472;55.812;37.638;2023-04-24T07:10:35;99449.53;;;45.54;8.48
80147;BME280;69472;55.812;37.638;2023-04-24T07:15:36;99457.75;;;48.80;7.47
80147;BME280;69472;55.812;37.638;2023-04-24T07:20:37;99433.97;;;36.52;12.59
80147;BME280;69472;55.812;37.638;2023-04-24T07:25:38;99448.50;;;36.43;13.13
80147;BME280;69472;55.812;37.638;2023-04-24T07:30:39;99446.13;;;38.53;11.22
80147;BME280;69472;55.812;37.638;2023-04-24T07:35:40;99455.31;;;33.90;13.73
80147;BME280;69472;55.812;37.638;2023-04-24T07:40:41;99460.66;;;50.22;6.99
80147;BME280;69472;55.812;37.638;2023-04-24T07:45:41;99456.88;;;52.45;5.62
80147;BME280;69472;55.812;37.638;2023-04-24T07:50:42;99451.03;;;43.86;8.56
80147;BME280;69472;55.812;37.638;2023-04-24T07:55:43;99455.69;;;55.74;4.90
80147;BME280;69472;55.812;37.638;2023-04-24T08:00:43;99444.09;;;53.95;5.88
80147;BME280;69472;55.812;37.638;2023-04-24T08:05:44;99438.00;;;44.15;7.42
80147;BME280;69472;55.812;37.638;2023-04-24T08:10:45;99431.47;;;52.45;6.06
80147;BME280;69472;55.812;37.638;2023-04-24T08:15:46;99441.09;;;49.75;6.47
80147;BME280;69472;55.812;37.638;2023-04-24T08:20:46;99427.53;;;50.29;6.56
80147;BME280;69472;55.812;37.638;2023-04-24T08:25:48;99424.63;;;41.99;8.67
80147;BME280;69472;55.812;37.638;2023-04-24T08:30:49;99423.03;;;33.65;12.62
80147;BME280;69472;55.812;37.638;2023-04-24T08:35:54;99420.84;;;31.35;14.73
80147;BME280;69472;55.812;37.638;2023-04-24T08:40:58;99417.91;;;29.73;14.91
80147;BME280;69472;55.812;37.638;2023-04-24T08:45:59;99414.03;;;28.95;15.32
80147;BME280;69472;55.812;37.638;2023-04-24T08:51:00;99410.03;;;27.02;17.14
80147;BME280;69472;55.812;37.638;2023-04-24T08:56:02;99399.97;;;27.42;17.28
80147;BME280;69472;55.812;37.638;2023-04-24T09:01:04;99397.75;;;26.48;17.91
80147;BME280;69472;55.812;37.638;2023-04-24T09:06:06;99397.78;;;25.73;18.23
80147;BME280;69472;55.812;37.638;2023-04-24T09:11:07;99395.59;;;26.34;18.00
80147;BME280;69472;55.812;37.638;2023-04-24T09:16:08;99393.91;;;25.96;18.35
80147;BME280;69472;55.812;37.638;2023-04-24T09:21:09;99390.53;;;25.57;19.58
80147;BME280;69472;55.812;37.638;2023-04-24T09:26:10;99395.59;;;25.20;19.22
80147;BME280;69472;55.812;37.638;2023-04-24T09:31:17;99388.22;;;24.76;19.25
80147;BME280;69472;55.812;37.638;2023-04-24T09:36:18;99371.06;;;25.02;19.19
80147;BME280;69472;55.812;37.638;2023-04-24T09:41:19;99366.47;;;24.45;19.94
80147;BME280;69472;55.812;37.638;2023-04-24T09:46:20;99362.16;;;24.25;19.84
80147;BME280;69472;55.812;37.638;2023-04-24T09:51:36;99360.81;;;23.80;20.73
80147;BME280;69472;55.812;37.638;2023-04-24T09:56:42;99361.69;;;23.49;20.58
80147;BME280;69472;55.812;37.638;2023-04-24T10:01:43;99356.25;;;23.61;20.62
80147;BME280;69472;55.812;37.638;2023-04-24T10:06:46;99358.38;;;23.67;20.69
80147;BME280;69472;55.812;37.638;2023-04-24T10:11:50;99358.75;;;23.83;20.55
80147;BME280;69472;55.812;37.638;2023-04-24T10:16:54;99348.75;;;23.47;21.26
80147;BME280;69472;55.812;37.638;2023-04-24T10:21:56;99347.09;;;23.46;21.22
80147;BME280;69472;55.812;37.638;2023-04-24T10:26:58;99341.41;;;23.62;21.37
80147;BME280;69472;55.812;37.638;2023-04-24T10:31:58;99341.31;;;23.63;20.53
80147;BME280;69472;55.812;37.638;2023-04-24T10:36:59;99337.72;;;23.44;20.76
80147;BME280;69472;55.812;37.638;2023-04-24T10:42:00;99337.81;;;23.21;20.69
80147;BME280;69472;55.812;37.638;2023-04-24T10:47:01;99332.00;;;23.18;20.88
80147;BME280;69472;55.812;37.638;2023-04-24T10:52:03;99332.91;;;23.28;21.01
80147;BME280;69472;55.812;37.638;2023-04-24T11:02:36;99320.91;;;23.37;21.02
80147;BME280;69472;55.812;37.638;2023-04-24T11:19:02;99307.31;;;22.25;21.72
80147;BME280;69472;55.812;37.638;2023-04-24T11:24:39;99301.00;;;22.61;21.30
80147;BME280;69472;55.812;37.638;2023-04-24T11:29:59;99298.88;;;22.66;21.46
80147;BME280;69472;55.812;37.638;2023-04-24T11:35:06;99283.34;;;22.64;21.51
80147;BME280;69472;55.812;37.638;2023-04-24T11:40:09;99267.88;;;22.73;21.47
80147;BME280;69472;55.812;37.638;2023-04-24T11:45:18;99287.56;;;22.77;21.17
80147;BME280;69472;55.812;37.638;2023-04-24T11:50:22;99273.34;;;22.58;21.43
80147;BME280;69472;55.812;37.638;2023-04-24T11:55:27;99271.72;;;22.57;21.17
80147;BME280;69472;55.812;37.638;2023-04-24T12:00:30;99262.22;;;22.56;21.64
80147;BME280;69472;55.812;37.638;2023-04-24T12:05:32;99260.22;;;22.49;21.37
80147;BME280;69472;55.812;37.638;2023-04-24T12:10:33;99264.88;;;22.45;21.81
80147;BME280;69472;55.812;37.638;2023-04-24T12:15:35;99238.50;;;22.17;22.04
80147;BME280;69472;55.812;37.638;2023-04-24T12:20:36;99259.34;;;22.28;21.87
80147;BME280;69472;55.812;37.638;2023-04-24T12:25:38;99245.69;;;22.35;21.79
80147;BME280;69472;55.812;37.638;2023-04-24T12:30:46;99250.94;;;22.24;21.76
80147;BME280;69472;55.812;37.638;2023-04-24T12:35:52;99233.41;;;22.26;21.57
80147;BME280;69472;55.812;37.638;2023-04-24T12:41:22;99229.91;;;22.37;21.95
80147;BME280;69472;55.812;37.638;2023-04-24T12:46:22;99225.69;;;22.56;21.86
80147;BME280;69472;55.812;37.638;2023-04-24T12:51:24;99220.72;;;22.11;21.56
80147;BME280;69472;55.812;37.638;2023-04-24T12:56:24;99217.09;;;22.02;22.02
80147;BME280;69472;55.812;37.638;2023-04-24T13:01:26;99219.75;;;22.23;22.19
80147;BME280;69472;55.812;37.638;2023-04-24T13:06:27;99220.59;;;22.23;22.18
80147;BME280;69472;55.812;37.638;2023-04-24T13:11:28;99213.38;;;22.16;22.35
80147;BME280;69472;55.812;37.638;2023-04-24T13:16:28;99209.63;;;21.86;23.32
80147;BME280;69472;55.812;37.638;2023-04-24T13:21:29;99199.56;;;21.93;22.24
80147;BME280;69472;55.812;37.638;2023-04-24T13:26:30;99200.97;;;21.75;22.27
80147;BME280;69472;55.812;37.638;2023-04-24T13:31:31;99203.34;;;21.78;21.96
80147;BME280;69472;55.812;37.638;2023-04-24T13:36:32;99198.50;;;21.84;21.82
80147;BME280;69472;55.812;37.638;2023-04-24T13:41:33;99198.97;;;21.67;21.86
80147;BME280;69472;55.812;37.638;2023-04-24T13:46:34;99183.44;;;21.77;21.62
80147;BME280;69472;55.812;37.638;2023-04-24T13:51:35;99182.28;;;21.59;22.04
80147;BME280;69472;55.812;37.638;2023-04-24T13:56:35;99184.41;;;21.43;22.30
80147;BME280;69472;55.812;37.638;2023-04-24T14:01:36;99181.69;;;21.44;22.77
80147;BME280;69472;55.812;37.638;2023-04-24T14:06:37;99170.09;;;21.37;22.71
80147;BME280;69472;55.812;37.638;2023-04-24T14:11:38;99167.94;;;21.53;22.82
80147;BME280;69472;55.812;37.638;2023-04-24T14:16:39;99168.81;;;21.43;22.88
80147;BME280;69472;55.812;37.638;2023-04-24T14:21:40;99160.50;;;21.49;22.77
80147;BME280;69472;55.812;37.638;2023-04-24T14:26:41;99153.19;;;21.43;22.86
80147;BME280;69472;55.812;37.638;2023-04-24T14:31:42;99159.91;;;21.45;22.65
80147;BME280;69472;55.812;37.638;2023-04-24T14:36:43;99155.53;;;21.46;22.50
80147;BME280;69472;55.812;37.638;2023-04-24T14:41:44;99149.47;;;21.45;22.45
80147;BME280;69472;55.812;37.638;2023-04-24T14:46:45;99150.31;;;21.46;22.55
80147;BME280;69472;55.812;37.638;2023-04-24T14:51:45;99135.88;;;21.42;22.32
80147;BME280;69472;55.812;37.638;2023-04-24T14:56:46;99142.72;;;21.65;22.48
80147;BME280;69472;55.812;37.638;2023-04-24T15:01:47;99148.19;;;21.62;22.42
80147;BME280;69472;55.812;37.638;2023-04-24T15:06:48;99134.22;;;21.63;22.40
80147;BME280;69472;55.812;37.638;2023-04-24T15:11:50;99141.66;;;21.67;22.59
80147;BME280;69472;55.812;37.638;2023-04-24T15:16:51;99144.84;;;21.60;22.57
80147;BME280;69472;55.812;37.638;2023-04-24T15:21:52;99142.03;;;21.41;22.59
80147;BME280;69472;55.812;37.638;2023-04-24T15:26:53;99149.75;;;21.42;22.35
80147;BME280;69472;55.812;37.638;2023-04-24T15:31:54;99139.81;;;21.47;22.86
80147;BME280;69472;55.812;37.638;2023-04-24T15:36:54;99137.91;;;21.27;22.70
80147;BME280;69472;55.812;37.638;2023-04-24T15:41:55;99133.06;;;21.11;22.88
80147;BME280;69472;55.812;37.638;2023-04-24T15:47:00;99126.31;;;21.09;23.22
80147;BME280;69472;55.812;37.638;2023-04-24T15:52:02;99129.56;;;21.00;23.19
80147;BME280;69472;55.812;37.638;2023-04-24T15:57:02;99128.09;;;20.73;22.91
80147;BME280;69472;55.812;37.638;2023-04-24T16:02:03;99118.94;;;20.57;23.25
80147;BME280;69472;55.812;37.638;2023-04-24T16:07:04;99130.69;;;20.62;23.31
80147;BME280;69472;55.812;37.638;2023-04-24T16:12:05;99134.63;;;20.44;23.38
80147;BME280;69472;55.812;37.638;2023-04-24T16:17:06;99132.81;;;20.34;23.49
80147;BME280;69472;55.812;37.638;2023-04-24T16:22:06;99136.28;;;20.22;24.15
80147;BME280;69472;55.812;37.638;2023-04-24T16:27:07;99132.19;;;20.06;24.30
80147;BME280;69472;55.812;37.638;2023-04-24T16:32:08;99142.19;;;20.00;24.38
80147;BME280;69472;55.812;37.638;2023-04-24T16:37:10;99139.44;;;19.90;24.65
80147;BME280;69472;55.812;37.638;2023-04-24T16:42:12;99135.22;;;19.77;24.38
80147;BME280;69472;55.812;37.638;2023-04-24T16:47:13;99139.91;;;19.72;24.51
80147;BME280;69472;55.812;37.638;2023-04-24T16:52:14;99144.09;;;19.62;24.94
80147;BME280;69472;55.812;37.638;2023-04-24T16:57:15;99161.44;;;19.61;24.84
80147;BME280;69472;55.812;37.638;2023-04-24T17:02:16;99167.06;;;19.55;25.45
80147;BME280;69472;55.812;37.638;2023-04-24T17:07:17;99158.44;;;19.42;25.74
80147;BME280;69472;55.812;37.638;2023-04-24T17:12:18;99169.66;;;19.43;25.38
80147;BME280;69472;55.812;37.638;2023-04-24T17:17:18;99154.59;;;19.22;25.37
80147;BME280;69472;55.812;37.638;2023-04-24T17:22:22;99179.53;;;19.37;25.39
80147;BME280;69472;55.812;37.638;2023-04-24T17:27:23;99180.72;;;19.32;25.73
80147;BME280;69472;55.812;37.638;2023-04-24T17:32:24;99187.28;;;19.25;25.76
80147;BME280;69472;55.812;37.638;2023-04-24T17:37:25;99180.84;;;19.18;26.10
80147;BME280;69472;55.812;37.638;2023-04-24T17:42:26;99193.59;;;19.08;26.15
80147;BME280;69472;55.812;37.638;2023-04-24T17:47:26;99200.53;;;19.08;26.39
80147;BME280;69472;55.812;37.638;2023-04-24T17:52:30;99204.50;;;19.01;26.26
80147;BME280;69472;55.812;37.638;2023-04-24T17:57:30;99176.06;;;18.87;26.64
80147;BME280;69472;55.812;37.638;2023-04-24T18:02:31;99204.78;;;18.96;26.42
80147;BME280;69472;55.812;37.638;2023-04-24T18:07:33;99206.47;;;18.97;26.71
80147;BME280;69472;55.812;37.638;2023-04-24T18:12:33;99208.00;;;18.87;26.78
80147;BME280;69472;55.812;37.638;2023-04-24T18:17:34;99211.44;;;18.88;27.07
80147;BME280;69472;55.812;37.638;2023-04-24T18:22:35;99207.28;;;18.85;26.94
80147;BME280;69472;55.812;37.638;2023-04-24T18:27:36;99216.09;;;18.83;26.75
80147;BME280;69472;55.812;37.638;2023-04-24T18:32:37;99211.41;;;18.75;26.67
80147;BME280;69472;55.812;37.638;2023-04-24T18:37:38;99211.81;;;18.69;27.33
80147;BME280;69472;55.812;37.638;2023-04-24T18:42:40;99210.75;;;18.71;27.13
80147;BME280;69472;55.812;37.638;2023-04-24T18:47:41;99215.25;;;18.82;26.68
80147;BME280;69472;55.812;37.638;2023-04-24T18:52:42;99214.03;;;18.88;26.66
80147;BME280;69472;55.812;37.638;2023-04-24T18:57:43;99213.06;;;18.89;27.06
80147;BME280;69472;55.812;37.638;2023-04-24T19:02:44;99211.00;;;18.94;27.04
80147;BME280;69472;55.812;37.638;2023-04-24T19:07:45;99211.25;;;18.91;26.85
80147;BME280;69472;55.812;37.638;2023-04-24T19:12:46;99211.75;;;18.83;26.71
80147;BME280;69472;55.812;37.638;2023-04-24T19:17:49;99208.44;;;18.81;26.80
80147;BME280;69472;55.812;37.638;2023-04-24T19:22:51;99223.03;;;18.82;26.79
80147;BME280;69472;55.812;37.638;2023-04-24T19:27:52;99221.47;;;18.80;26.84
80147;BME280;69472;55.812;37.638;2023-04-24T19:32:53;99212.94;;;18.65;27.21
80147;BME280;69472;55.812;37.638;2023-04-24T19:37:53;99218.53;;;18.71;27.35
80147;BME280;69472;55.812;37.638;2023-04-24T19:42:55;99226.38;;;18.57;27.74
80147;BME280;69472;55.812;37.638;2023-04-24T19:47:55;99227.41;;;18.55;27.47
80147;BME280;69472;55.812;37.638;2023-04-24T19:52:56;99197.81;;;18.45;27.33
80147;BME280;69472;55.812;37.638;2023-04-24T19:57:59;99221.91;;;18.47;28.13
80147;BME280;69472;55.812;37.638;2023-04-24T20:03:00;99230.25;;;18.38;28.07
80147;BME280;69472;55.812;37.638;2023-04-24T20:08:02;99219.34;;;18.33;28.24
80147;BME280;69472;55.812;37.638;2023-04-24T20:13:02;99219.03;;;18.37;28.00
80147;BME280;69472;55.812;37.638;2023-04-24T20:18:03;99221.47;;;18.26;27.82
80147;BME280;69472;55.812;37.638;2023-04-24T20:23:04;99225.19;;;18.22;28.16
80147;BME280;69472;55.812;37.638;2023-04-24T20:28:05;99219.13;;;18.09;28.41
80147;BME280;69472;55.812;37.638;2023-04-24T20:33:06;99228.94;;;18.04;28.62
80147;BME280;69472;55.812;37.638;2023-04-24T20:38:06;99213.56;;;18.01;28.75
80147;BME280;69472;55.812;37.638;2023-04-24T20:43:10;99225.78;;;17.99;28.73
80147;BME280;69472;55.812;37.638;2023-04-24T20:48:11;99216.94;;;17.89;29.33
80147;BME280;69472;55.812;37.638;2023-04-24T20:53:12;99226.56;;;17.87;29.03
80147;BME280;69472;55.812;37.638;2023-04-24T20:58:13;99238.84;;;17.69;29.66
80147;BME280;69472;55.812;37.638;2023-04-24T21:03:14;99230.25;;;17.69;29.76
80147;BME280;69472;55.812;37.638;2023-04-24T21:08:15;99226.56;;;17.73;29.50
80147;BME280;69472;55.812;37.638;2023-04-24T21:13:16;99235.25;;;17.58;30.28
80147;BME280;69472;55.812;37.638;2023-04-24T21:18:17;99238.97;;;17.54;29.98
80147;BME280;69472;55.812;37.638;2023-04-24T21:23:18;99231.34;;;17.51;30.28
80147;BME280;69472;55.812;37.638;2023-04-24T21:28:18;99224.22;;;17.40;30.30
80147;BME280;69472;55.812;37.638;2023-04-24T21:33:19;99236.13;;;17.28;30.54
80147;BME280;69472;55.812;37.638;2023-04-24T21:38:20;99233.13;;;17.20;30.74
80147;BME280;69472;55.812;37.638;2023-04-24T21:43:23;99203.38;;;16.99;30.81
80147;BME280;69472;55.812;37.638;2023-04-24T21:48:24;99226.19;;;17.07;31.11
80147;BME280;69472;55.812;37.638;2023-04-24T21:53:25;99227.75;;;16.95;31.17
80147;BME280;69472;55.812;37.638;2023-04-24T21:58:26;99222.84;;;16.91;31.51
80147;BME280;69472;55.812;37.638;2023-04-24T22:03:26;99217.00;;;16.87;31.28
80147;BME280;69472;55.812;37.638;2023-04-24T22:08:28;99218.78;;;16.87;31.11
80147;BME280;69472;55.812;37.638;2023-04-24T22:13:29;99215.59;;;16.67;31.66
80147;BME280;69472;55.812;37.638;2023-04-24T22:18:30;99219.34;;;16.62;31.90
80147;BME280;69472;55.812;37.638;2023-04-24T22:23:31;99210.41;;;16.67;31.75
80147;BME280;69472;55.812;37.638;2023-04-24T22:28:32;99193.09;;;16.38;32.21
80147;BME280;69472;55.812;37.638;2023-04-24T22:33:33;99215.41;;;16.39;32.25
80147;BME280;69472;55.812;37.638;2023-04-24T22:38:33;99208.78;;;16.35;32.70
80147;BME280;69472;55.812;37.638;2023-04-24T22:43:34;99204.97;;;16.27;32.65
80147;BME280;69472;55.812;37.638;2023-04-24T22:48:35;99205.94;;;16.08;33.12
80147;BME280;69472;55.812;37.638;2023-04-24T22:53:36;99215.44;;;16.24;32.93
80147;BME280;69472;55.812;37.638;2023-04-24T22:58:36;99222.78;;;16.16;33.19
80147;BME280;69472;55.812;37.638;2023-04-24T23:03:37;99216.59;;;16.18;33.27
80147;BME280;69472;55.812;37.638;2023-04-24T23:08:38;99213.28;;;16.16;33.63
80147;BME280;69472;55.812;37.638;2023-04-24T23:13:38;99207.78;;;16.06;33.68
80147;BME280;69472;55.812;37.638;2023-04-24T23:18:40;99206.53;;;16.14;33.66
80147;BME280;69472;55.812;37.638;2023-04-24T23:23:40;99204.84;;;16.13;33.83
80147;BME280;69472;55.812;37.638;2023-04-24T23:28:41;99208.28;;;15.97;34.20
80147;BME280;69472;55.812;37.638;2023-04-24T23:33:42;99213.78;;;16.07;34.18
80147;BME280;69472;55.812;37.638;2023-04-24T23:38:43;99203.22;;;16.12;34.25
80147;BME280;69472;55.812;37.638;2023-04-24T23:43:43;99221.13;;;16.15;34.98
80147;BME280;69472;55.812;37.638;2023-04-24T23:48:44;99218.34;;;16.18;34.62
80147;BME280;69472;55.812;37.638;2023-04-24T23:53:45;99224.19;;;16.05;35.53
80147;BME280;69472;55.812;37.638;2023-04-24T23:58:46;99217.78;;;15.97;35.64
